METAR Data
IDs: Format: Raw Decoded Include TAF

Data at: 1641 UTC 18 Feb 2019

METAR for:KBNW (Boone Muni, IA, US)
Text:KBNW 181635Z AUTO 01008KT 10SM CLR M12/M14 A3042 RMK AO2
Temperature:-12.0°C ( 10°F)
Dewpoint:-14.0°C ( 7°F) [RH = 85%]
Pressure (altimeter):30.42 inches Hg (1030.2 mb)
Winds:from the N (10 degrees) at 9 MPH (8 knots; 4.1 m/s)
Visibility:10 or more sm (16+ km)
Ceiling:at least 12,000 feet AGL
Clouds:sky clear below 12,000 feet AGL
QC Flag:automated observation with no human augmentation